createdAt,value
2023-03-30T00:03:55.414Z,4.35
2023-03-30T00:08:57.495Z,5.28
2023-03-30T00:13:59.044Z,4.90
2023-03-30T00:19:00.516Z,5.00
2023-03-30T00:24:02.011Z,4.45
2023-03-30T00:29:03.506Z,4.65
2023-03-30T00:34:04.992Z,4.20
2023-03-30T00:39:06.760Z,4.43
2023-03-30T00:44:28.708Z,3.05
2023-03-30T00:49:31.980Z,3.15
2023-03-30T00:54:33.485Z,3.47
2023-03-30T00:59:35.019Z,3.10
2023-03-30T01:04:37.649Z,3.17
2023-03-30T01:09:42.915Z,3.20
2023-03-30T01:14:44.365Z,3.33
2023-03-30T01:20:03.241Z,3.35
2023-03-30T01:25:07.446Z,3.20
2023-03-30T01:30:18.199Z,2.53
2023-03-30T01:35:28.441Z,3.30
2023-03-30T01:40:44.454Z,3.03
2023-03-30T01:45:57.497Z,2.65
2023-03-30T01:51:06.200Z,2.83
2023-03-30T01:56:12.329Z,2.90
2023-03-30T02:01:17.485Z,2.80
2023-03-30T02:06:41.321Z,2.63
2023-03-30T02:11:45.022Z,3.28
2023-03-30T02:16:48.200Z,3.10
2023-03-30T02:21:50.555Z,2.60
2023-03-30T02:26:52.968Z,2.60
2023-03-30T02:31:56.708Z,2.92
2023-03-30T02:37:16.672Z,2.63
2023-03-30T02:42:18.098Z,2.20
2023-03-30T02:47:38.740Z,2.67
2023-03-30T02:52:46.106Z,2.42
2023-03-30T02:58:07.463Z,2.67
2023-03-30T03:03:14.299Z,2.05
2023-03-30T03:08:17.837Z,2.30
2023-03-30T03:13:20.805Z,2.28
2023-03-30T03:18:22.825Z,2.45
2023-03-30T03:23:24.283Z,2.35
2023-03-30T03:28:25.967Z,2.08
2023-03-30T03:33:27.514Z,2.33
2023-03-30T03:38:29.609Z,2.17
2023-03-30T03:43:31.156Z,2.10
2023-03-30T03:48:32.553Z,2.45
2023-03-30T03:53:33.983Z,2.80
2023-03-30T03:58:35.386Z,2.72
2023-03-30T04:03:36.790Z,2.80
2023-03-30T04:08:38.197Z,2.88
2023-03-30T04:13:40.368Z,2.17
2023-03-30T04:18:41.780Z,2.00
2023-03-30T04:23:45.950Z,2.40
2023-03-30T04:28:47.685Z,2.10
2023-03-30T04:33:53.489Z,2.20
2023-03-30T04:39:06.989Z,2.20
2023-03-30T04:44:09.831Z,2.10
2023-03-30T04:49:11.351Z,2.50
2023-03-30T04:54:12.752Z,2.33
2023-03-30T04:59:14.228Z,2.40
2023-03-30T05:04:15.698Z,2.83
2023-03-30T05:09:17.167Z,2.83
2023-03-30T05:14:18.600Z,3.00
2023-03-30T05:19:20.117Z,2.22
2023-03-30T05:24:21.588Z,2.78
2023-03-30T05:29:23.066Z,2.88
2023-03-30T05:34:25.798Z,2.53
2023-03-30T05:39:27.285Z,2.35
2023-03-30T05:44:28.748Z,3.60
2023-03-30T05:49:31.495Z,2.80
2023-03-30T05:54:32.930Z,3.20
2023-03-30T05:59:34.338Z,3.78
2023-03-30T06:04:35.733Z,3.13
2023-03-30T06:09:37.509Z,3.10
2023-03-30T06:14:38.959Z,3.30
2023-03-30T06:19:41.926Z,3.47
2023-03-30T06:24:43.377Z,2.75
2023-03-30T06:29:45.265Z,2.92
2023-03-30T06:34:47.152Z,2.80
2023-03-30T06:39:48.631Z,3.53
2023-03-30T06:44:50.122Z,3.53
2023-03-30T06:49:51.821Z,3.28
2023-03-30T06:54:53.445Z,4.18
2023-03-30T06:59:54.846Z,3.95
2023-03-30T07:04:56.275Z,3.92
2023-03-30T07:09:57.719Z,4.03
2023-03-30T07:14:59.135Z,5.07
2023-03-30T07:20:02.309Z,4.22
2023-03-30T07:25:04.692Z,3.65
2023-03-30T07:30:17.943Z,4.70
2023-03-30T07:35:19.859Z,3.97
2023-03-30T07:40:21.332Z,4.32
2023-03-30T07:45:22.890Z,3.88
2023-03-30T07:50:25.720Z,4.30
2023-03-30T07:55:28.777Z,4.45
2023-03-30T08:00:31.099Z,4.60
2023-03-30T08:05:32.882Z,4.43
2023-03-30T08:10:34.824Z,4.60
2023-03-30T08:15:36.373Z,3.72
2023-03-30T08:20:37.853Z,3.40
2023-03-30T08:25:39.301Z,3.60
2023-03-30T08:30:40.904Z,3.67
2023-03-30T08:35:46.705Z,3.28
2023-03-30T08:40:49.306Z,3.63
2023-03-30T08:45:51.897Z,3.80
2023-03-30T08:51:06.115Z,4.15
2023-03-30T08:56:15.465Z,4.45
2023-03-30T09:01:34.763Z,3.83
2023-03-30T09:06:53.733Z,3.72
2023-03-30T09:12:02.400Z,3.45
2023-03-30T09:17:07.646Z,4.82
2023-03-30T09:22:12.599Z,3.75
2023-03-30T09:27:22.744Z,3.35
2023-03-30T09:32:33.367Z,4.10
2023-03-30T09:37:35.899Z,4.00
2023-03-30T09:42:44.931Z,3.83
2023-03-30T09:47:46.676Z,4.22
2023-03-30T09:53:01.749Z,3.45
2023-03-30T09:58:19.902Z,4.50
2023-03-30T10:03:22.843Z,3.92
2023-03-30T10:08:25.703Z,4.72
2023-03-30T10:13:32.545Z,3.97
2023-03-30T10:18:41.465Z,4.55
2023-03-30T10:23:44.896Z,3.67
2023-03-30T10:28:52.712Z,4.63
2023-03-30T10:33:58.167Z,4.32
2023-03-30T10:39:12.496Z,4.15
2023-03-30T10:44:20.108Z,3.92
2023-03-30T10:49:21.535Z,4.30
2023-03-30T10:54:23.004Z,4.32
2023-03-30T10:59:53.712Z,5.10
2023-03-30T11:05:22.899Z,3.97
2023-03-30T11:10:36.844Z,4.70
2023-03-30T11:15:46.788Z,3.90
2023-03-30T11:21:11.427Z,4.43
2023-03-30T11:26:17.229Z,4.03
2023-03-30T11:31:27.292Z,4.10
2023-03-30T11:36:49.610Z,5.53
2023-03-30T11:42:18.018Z,4.80
2023-03-30T11:47:38.301Z,5.22
2023-03-30T11:53:09.294Z,4.25
2023-03-30T11:58:11.953Z,4.38
2023-03-30T12:03:18.730Z,5.47
2023-03-30T12:08:26.853Z,4.57
2023-03-30T12:13:38.160Z,3.38
2023-03-30T12:19:10.663Z,4.50
2023-03-30T12:24:44.290Z,5.22
2023-03-30T12:34:57.161Z,4.43
2023-03-30T12:40:08.853Z,4.10
2023-03-30T12:45:29.131Z,5.18
2023-03-30T12:50:49.070Z,3.95
2023-03-30T13:01:02.587Z,5.00
2023-03-30T13:06:06.120Z,4.47
2023-03-30T13:11:09.211Z,4.07
2023-03-30T13:16:12.842Z,3.65
2023-03-30T13:21:22.995Z,4.10
2023-03-30T13:26:34.510Z,4.70
2023-03-30T13:31:39.395Z,5.53
2023-03-30T13:36:44.468Z,3.92
2023-03-30T13:42:11.885Z,4.55
2023-03-30T13:47:32.087Z,4.30
2023-03-30T13:52:38.934Z,4.65
2023-03-30T13:57:41.523Z,4.78
2023-03-30T14:02:43.023Z,4.78
2023-03-30T14:07:47.155Z,4.97
2023-03-30T14:12:51.427Z,4.70
2023-03-30T14:17:55.967Z,4.70
2023-03-30T14:22:58.584Z,4.95
2023-03-30T14:28:07.614Z,4.65
2023-03-30T14:33:11.254Z,4.90
2023-03-30T14:38:17.052Z,6.50
2023-03-30T14:43:22.600Z,4.78
2023-03-30T14:48:24.008Z,3.72
2023-03-30T14:53:26.970Z,5.88
2023-03-30T14:58:31.237Z,4.80
2023-03-30T15:03:34.815Z,4.38
2023-03-30T15:08:37.715Z,4.60
2023-03-30T15:13:40.863Z,4.30
2023-03-30T15:18:42.633Z,4.78
2023-03-30T15:23:45.445Z,3.83
2023-03-30T15:28:48.832Z,5.03
2023-03-30T15:33:54.434Z,4.93
2023-03-30T15:38:58.754Z,5.15
2023-03-30T15:44:13.339Z,4.55
2023-03-30T15:49:16.188Z,4.72
2023-03-30T15:54:20.390Z,5.50
2023-03-30T15:59:24.476Z,4.78
2023-03-30T16:04:25.959Z,4.68
2023-03-30T16:09:27.487Z,5.88
2023-03-30T16:14:31.075Z,4.45
2023-03-30T16:19:32.794Z,5.63
2023-03-30T16:24:34.278Z,4.53
2023-03-30T16:29:36.953Z,4.57
2023-03-30T16:34:39.362Z,4.47
2023-03-30T16:39:42.658Z,5.07
2023-03-30T16:44:44.142Z,4.45
2023-03-30T16:49:46.287Z,5.38
2023-03-30T16:54:47.650Z,5.22
2023-03-30T16:59:49.099Z,4.35
2023-03-30T17:04:50.769Z,4.63
2023-03-30T17:09:52.203Z,4.70
2023-03-30T17:14:53.630Z,4.32
2023-03-30T17:19:56.285Z,4.65
2023-03-30T17:24:57.715Z,5.47
2023-03-30T17:29:59.126Z,4.57
2023-03-30T17:35:00.841Z,4.63
2023-03-30T17:40:10.121Z,4.65
2023-03-30T17:45:13.185Z,3.95
2023-03-30T17:50:17.386Z,4.80
2023-03-30T17:55:19.532Z,4.75
2023-03-30T18:00:25.542Z,5.05
2023-03-30T18:05:28.584Z,4.80
2023-03-30T18:10:32.743Z,3.67
2023-03-30T18:15:34.290Z,3.55
2023-03-30T18:20:43.832Z,4.10
2023-03-30T18:25:45.604Z,5.28
2023-03-30T18:30:47.663Z,4.05
2023-03-30T18:35:51.046Z,5.28
2023-03-30T18:40:58.228Z,4.05
2023-03-30T18:46:01.708Z,4.55
2023-03-30T18:51:03.573Z,4.70
2023-03-30T18:56:05.193Z,4.38
2023-03-30T19:01:06.916Z,4.50
2023-03-30T19:06:13.724Z,4.28
2023-03-30T19:11:25.767Z,5.40
2023-03-30T19:16:27.247Z,4.38
2023-03-30T19:21:28.826Z,4.20
2023-03-30T19:26:30.312Z,3.55
2023-03-30T19:31:31.784Z,4.60
2023-03-30T19:36:35.941Z,3.80
2023-03-30T19:41:37.504Z,5.38
2023-03-30T19:46:39.091Z,4.20
2023-03-30T19:51:40.767Z,4.13
2023-03-30T19:56:42.454Z,3.92
2023-03-30T20:01:44.390Z,3.80
2023-03-30T20:06:45.843Z,4.78
2023-03-30T20:11:47.457Z,4.82
2023-03-30T20:16:49.929Z,4.20
2023-03-30T20:21:52.350Z,4.90
2023-03-30T20:26:53.758Z,4.50
2023-03-30T20:31:55.455Z,4.60
2023-03-30T20:36:57.044Z,4.38
2023-03-30T20:41:59.163Z,5.05
2023-03-30T20:47:02.606Z,4.57
2023-03-30T20:52:04.167Z,4.40
2023-03-30T20:57:05.728Z,4.60
2023-03-30T21:02:07.371Z,4.43
2023-03-30T21:07:10.328Z,5.03
2023-03-30T21:12:11.865Z,3.90
2023-03-30T21:17:13.296Z,4.32
2023-03-30T21:22:14.726Z,4.53
2023-03-30T21:27:16.274Z,4.07
2023-03-30T21:32:17.671Z,3.67
2023-03-30T21:37:19.079Z,4.65
2023-03-30T21:42:20.497Z,5.85
2023-03-30T21:47:21.871Z,4.43
2023-03-30T21:52:23.346Z,4.68
2023-03-30T21:57:26.727Z,4.20
2023-03-30T22:02:28.214Z,3.95
2023-03-30T22:07:29.820Z,4.20
2023-03-30T22:12:31.488Z,4.90
2023-03-30T22:17:41.825Z,4.93
2023-03-30T22:22:43.777Z,3.92
2023-03-30T22:27:45.252Z,4.97
2023-03-30T22:32:46.991Z,4.40
2023-03-30T22:37:48.527Z,4.38
2023-03-30T22:42:50.820Z,4.30
2023-03-30T22:47:52.896Z,4.47
2023-03-30T22:52:55.133Z,3.22
2023-03-30T22:57:59.597Z,4.43
2023-03-30T23:03:02.922Z,4.07
2023-03-30T23:08:04.657Z,4.13
2023-03-30T23:13:06.044Z,3.67
2023-03-30T23:18:07.826Z,4.55
2023-03-30T23:23:09.367Z,4.25
2023-03-30T23:28:13.299Z,4.30
2023-03-30T23:33:14.910Z,3.90
2023-03-30T23:38:17.056Z,4.35
2023-03-30T23:43:18.552Z,4.55
2023-03-30T23:48:19.996Z,3.08
2023-03-30T23:53:21.461Z,3.63
2023-03-30T23:58:22.933Z,3.58
